Terminal Aerodrome Forecast
Issued by NWS

Current Version | Previous Version | Graphics & Text | Print | Product List | Glossary On
Versions: 1 2 3 4 5 6 7 8 9 10 11 12 13 14 15 16 17 18 19 20 21 22 23 24 25 26
000
FTUS41 KILN 251734
TAFLUK
TAF
KLUK 251734Z 2518/2618 24009KT P6SM SCT040
     FM260000 26002KT P6SM SCT250
     FM260400 00000KT 3SM BR SCT250
     FM260900 00000KT 2SM BR SCT015
     FM261400 VRB02KT P6SM FEW030=

USA.gov is the U.S. government's official web portal to all federal, state and local government web resources and services.